createdAt,value
2019-04-07T00:01:57.334Z,65.75
2019-04-07T00:04:25.926Z,67.85
2019-04-07T00:06:54.516Z,61.58
2019-04-07T00:09:23.225Z,61.60
2019-04-07T00:11:51.952Z,65.05
2019-04-07T00:14:20.674Z,58.38
2019-04-07T00:16:49.518Z,68.20
2019-04-07T00:19:18.242Z,68.05
2019-04-07T00:21:46.867Z,64.12
2019-04-07T00:24:15.376Z,72.92
2019-04-07T00:26:44.718Z,69.55
2019-04-07T00:29:15.525Z,69.42
2019-04-07T00:31:44.023Z,75.95
2019-04-07T00:34:12.632Z,71.17
2019-04-07T00:36:41.097Z,78.70
2019-04-07T00:39:09.559Z,84.47
2019-04-07T00:41:38.681Z,80.15
2019-04-07T00:44:07.201Z,80.17
2019-04-07T00:46:35.710Z,79.40
2019-04-07T00:49:04.148Z,84.40
2019-04-07T00:51:33.250Z,70.55
2019-04-07T00:54:01.968Z,78.75
2019-04-07T00:56:30.430Z,80.92
2019-04-07T00:58:58.893Z,83.45
2019-04-07T01:01:27.407Z,85.12
2019-04-07T01:03:55.933Z,82.35
2019-04-07T01:06:24.399Z,84.07
2019-04-07T01:08:52.838Z,87.42
2019-04-07T01:11:21.609Z,90.97
2019-04-07T01:13:50.566Z,84.45
2019-04-07T01:16:19.878Z,91.65
2019-04-07T01:18:48.396Z,88.03
2019-04-07T01:21:17.056Z,93.37
2019-04-07T01:23:46.093Z,88.52
2019-04-07T01:26:14.604Z,91.00
2019-04-07T01:28:43.075Z,90.55
2019-04-07T01:31:12.033Z,86.37
2019-04-07T01:33:40.916Z,94.10
2019-04-07T01:36:11.137Z,96.02
2019-04-07T01:38:39.659Z,95.07
2019-04-07T01:41:12.589Z,94.87
2019-04-07T01:43:48.504Z,92.92
2019-04-07T01:46:19.133Z,92.97
2019-04-07T01:48:49.416Z,96.65
2019-04-07T01:51:35.533Z,94.55
2019-04-07T01:54:06.383Z,87.70
2019-04-07T01:56:54.683Z,101.47
2019-04-07T01:59:25.346Z,98.62
2019-04-07T02:01:58.148Z,95.07
2019-04-07T02:04:39.979Z,100.12
2019-04-07T02:07:28.290Z,92.42
2019-04-07T02:10:04.478Z,92.78
2019-04-07T02:12:40.320Z,94.83
2019-04-07T02:15:17.344Z,93.30
2019-04-07T02:17:57.044Z,95.90
2019-04-07T02:20:54.245Z,101.60
2019-04-07T02:23:25.023Z,99.20
2019-04-07T02:25:55.188Z,107.30
2019-04-07T02:28:31.137Z,100.03
2019-04-07T02:31:07.916Z,107.97
2019-04-07T02:33:44.387Z,108.65
2019-04-07T02:36:22.709Z,107.87
2019-04-07T02:38:46.265Z,109.95
2019-04-07T02:41:26.001Z,108.67
2019-04-07T02:44:02.851Z,98.12
2019-04-07T02:46:36.595Z,114.10
2019-04-07T02:49:12.906Z,101.18
2019-04-07T02:51:43.536Z,104.03
2019-04-07T02:54:30.293Z,103.40
2019-04-07T02:57:18.956Z,107.55
2019-04-07T03:00:06.226Z,102.12
2019-04-07T03:02:45.689Z,105.12
2019-04-07T03:05:24.316Z,108.37
2019-04-07T03:07:59.942Z,103.38
2019-04-07T03:10:44.805Z,112.62
2019-04-07T03:13:24.448Z,105.25
2019-04-07T03:16:13.090Z,116.70
2019-04-07T03:19:00.179Z,118.67
2019-04-07T03:21:31.072Z,109.65
2019-04-07T03:24:04.066Z,108.17
2019-04-07T03:26:49.945Z,108.27
2019-04-07T03:29:20.272Z,117.62
2019-04-07T03:31:53.594Z,118.28
2019-04-07T03:34:41.282Z,109.45
2019-04-07T03:37:32.431Z,119.37
2019-04-07T03:40:04.765Z,121.47
2019-04-07T03:42:38.536Z,129.07
2019-04-07T03:45:10.126Z,129.35
2019-04-07T03:47:43.707Z,126.97
2019-04-07T03:50:14.965Z,138.52
2019-04-07T03:52:59.867Z,129.20
2019-04-07T03:55:38.671Z,137.15
2019-04-07T03:58:20.907Z,137.25
2019-04-07T04:01:09.865Z,140.12
2019-04-07T04:03:59.215Z,144.70
2019-04-07T04:06:46.022Z,156.10
2019-04-07T04:09:22.261Z,151.97
2019-04-07T04:12:08.511Z,146.28
2019-04-07T04:14:54.977Z,155.43
2019-04-07T04:17:23.493Z,157.72
2019-04-07T04:19:52.018Z,153.05
2019-04-07T04:22:21.044Z,151.93
2019-04-07T04:24:51.527Z,157.70
2019-04-07T04:27:20.401Z,152.93
2019-04-07T04:29:51.906Z,158.90
2019-04-07T04:32:19.521Z,157.70
2019-04-07T04:34:48.021Z,152.97
2019-04-07T04:37:26.802Z,156.00
2019-04-07T04:39:47.502Z,158.03
2019-04-07T04:42:16.216Z,161.92
2019-04-07T04:44:45.636Z,167.60
2019-04-07T04:47:14.160Z,166.77
2019-04-07T04:49:43.457Z,174.80
2019-04-07T04:52:12.043Z,168.55
2019-04-07T04:54:40.795Z,164.75
2019-04-07T04:57:09.480Z,173.38
2019-04-07T04:59:37.948Z,166.68
2019-04-07T05:02:06.392Z,158.70
2019-04-07T05:04:34.831Z,163.87
2019-04-07T05:07:04.106Z,163.32
2019-04-07T05:09:41.104Z,173.72
2019-04-07T05:12:04.775Z,163.90
2019-04-07T05:14:33.355Z,168.33
2019-04-07T05:17:01.797Z,169.55
2019-04-07T05:19:30.241Z,171.82
2019-04-07T05:21:59.150Z,165.40
2019-04-07T05:24:28.228Z,171.87
2019-04-07T05:26:57.272Z,165.47
2019-04-07T05:29:25.897Z,160.52
2019-04-07T05:31:54.342Z,166.65
2019-04-07T05:34:23.087Z,172.20
2019-04-07T05:36:52.184Z,160.15
2019-04-07T05:39:20.780Z,179.15
2019-04-07T05:41:49.342Z,181.40
2019-04-07T05:44:17.913Z,164.62
2019-04-07T05:46:48.137Z,176.10
2019-04-07T05:49:17.738Z,180.15
2019-04-07T05:51:47.130Z,183.90
2019-04-07T05:54:17.356Z,187.12
2019-04-07T05:56:45.951Z,180.87
2019-04-07T05:59:14.781Z,176.90
2019-04-07T06:01:44.577Z,182.88
2019-04-07T06:04:16.871Z,177.40
2019-04-07T06:06:43.258Z,175.95
2019-04-07T06:09:11.709Z,181.72
2019-04-07T06:11:40.211Z,178.97
2019-04-07T06:14:08.717Z,180.32
2019-04-07T06:16:37.779Z,195.70
2019-04-07T06:19:07.995Z,178.07
2019-04-07T06:21:36.646Z,180.32
2019-04-07T06:24:05.212Z,185.07
2019-04-07T06:26:34.155Z,191.20
2019-04-07T06:29:02.708Z,189.85
2019-04-07T06:31:32.153Z,193.32
2019-04-07T06:34:01.401Z,190.75
2019-04-07T06:36:29.950Z,181.02
2019-04-07T06:38:59.352Z,189.47
2019-04-07T06:41:31.233Z,192.40
2019-04-07T06:44:08.724Z,195.55
2019-04-07T06:46:30.533Z,187.55
2019-04-07T06:49:15.912Z,197.98
2019-04-07T06:51:49.001Z,193.85
2019-04-07T06:54:22.334Z,199.07
2019-04-07T06:57:08.534Z,198.25
2019-04-07T06:59:47.136Z,197.50
2019-04-07T07:02:19.616Z,193.28
2019-04-07T07:05:08.348Z,202.10
2019-04-07T07:07:41.422Z,199.77
2019-04-07T07:10:11.711Z,210.53
2019-04-07T07:12:47.295Z,213.00
2019-04-07T07:15:33.775Z,217.32
2019-04-07T07:18:07.910Z,212.38
2019-04-07T07:20:50.499Z,226.62
2019-04-07T07:23:20.717Z,230.72
2019-04-07T07:25:50.514Z,222.83
2019-04-07T07:28:19.468Z,210.93
2019-04-07T07:30:51.797Z,208.43
2019-04-07T07:33:18.180Z,210.53
2019-04-07T07:35:49.113Z,215.32
2019-04-07T07:38:16.900Z,226.42
2019-04-07T07:40:47.711Z,243.12
2019-04-07T07:43:15.967Z,223.47
2019-04-07T07:45:48.055Z,213.65
2019-04-07T07:48:14.658Z,225.50
2019-04-07T07:50:43.646Z,223.10
2019-04-07T07:53:12.597Z,212.97
2019-04-07T07:55:41.274Z,216.30
2019-04-07T07:58:10.500Z,214.20
2019-04-07T08:00:42.098Z,207.60
2019-04-07T08:03:10.199Z,197.43
2019-04-07T08:05:38.804Z,201.15
2019-04-07T08:08:07.271Z,202.25
2019-04-07T08:10:36.346Z,200.78
2019-04-07T08:13:06.834Z,201.88
2019-04-07T08:15:35.074Z,186.80
2019-04-07T08:18:07.038Z,187.55
2019-04-07T08:20:33.929Z,175.75
2019-04-07T08:23:02.607Z,183.22
2019-04-07T08:25:31.760Z,178.97
2019-04-07T08:28:02.201Z,180.50
2019-04-07T08:30:30.662Z,172.45
2019-04-07T08:33:00.431Z,173.32
2019-04-07T08:35:29.803Z,182.12
2019-04-07T08:37:58.525Z,179.93
2019-04-07T08:40:27.425Z,166.32
2019-04-07T08:42:56.126Z,175.15
2019-04-07T08:45:26.754Z,164.82
2019-04-07T08:47:55.429Z,172.82
2019-04-07T08:50:27.666Z,168.97
2019-04-07T08:52:54.111Z,175.70
2019-04-07T08:55:22.632Z,170.82
2019-04-07T08:57:52.033Z,162.70
2019-04-07T09:00:22.399Z,168.70
2019-04-07T09:03:01.814Z,163.35
2019-04-07T09:05:26.710Z,156.53
2019-04-07T09:07:51.892Z,159.25
2019-04-07T09:10:22.094Z,151.10
2019-04-07T09:12:51.000Z,162.80
2019-04-07T09:15:33.832Z,149.47
2019-04-07T09:18:06.996Z,145.53
2019-04-07T09:20:40.904Z,137.52
2019-04-07T09:23:17.675Z,149.75
2019-04-07T09:26:04.092Z,133.55
2019-04-07T09:28:34.294Z,137.47
2019-04-07T09:31:07.500Z,136.68
2019-04-07T09:33:49.949Z,131.65
2019-04-07T09:36:26.512Z,125.35
2019-04-07T09:39:08.735Z,127.55
2019-04-07T09:41:43.147Z,120.55
2019-04-07T09:44:14.339Z,120.08
2019-04-07T09:46:59.587Z,124.90
2019-04-07T09:49:48.451Z,126.90
2019-04-07T09:52:17.883Z,112.22
2019-04-07T09:54:57.334Z,117.20
2019-04-07T09:57:27.580Z,114.22
2019-04-07T10:00:03.783Z,111.52
2019-04-07T10:02:49.708Z,115.17
2019-04-07T10:05:31.940Z,120.35
2019-04-07T10:08:19.106Z,117.62
2019-04-07T10:10:56.011Z,114.60
2019-04-07T10:13:38.548Z,115.55
2019-04-07T10:16:24.031Z,118.35
2019-04-07T10:19:09.954Z,113.00
2019-04-07T10:21:45.923Z,125.35
2019-04-07T10:24:16.921Z,126.05
2019-04-07T10:29:22.998Z,132.22
2019-04-07T10:32:09.223Z,139.52
2019-04-07T10:34:39.337Z,127.02
2019-04-07T10:37:10.162Z,130.53
2019-04-07T10:39:46.336Z,130.40
2019-04-07T10:42:34.646Z,126.58
2019-04-07T10:45:04.949Z,125.22
2019-04-07T10:47:35.815Z,107.87
2019-04-07T10:52:37.780Z,115.45
2019-04-07T10:55:14.233Z,111.47
2019-04-07T10:57:44.420Z,107.22
2019-04-07T11:00:33.441Z,101.53
2019-04-07T11:03:18.626Z,97.75
2019-04-07T11:05:49.226Z,104.45
2019-04-07T11:08:20.191Z,93.58
2019-04-07T11:10:50.801Z,87.05
2019-04-07T11:13:36.968Z,80.25
2019-04-07T11:16:07.152Z,77.95
2019-04-07T11:18:40.322Z,91.02
2019-04-07T11:21:22.716Z,82.20
2019-04-07T11:24:09.061Z,92.08
2019-04-07T11:26:39.728Z,90.53
2019-04-07T11:29:13.354Z,87.42
2019-04-07T11:31:59.409Z,89.10
2019-04-07T11:34:33.139Z,84.87
2019-04-07T11:37:13.257Z,90.50
2019-04-07T11:42:26.654Z,79.72
2019-04-07T11:45:03.097Z,80.67
2019-04-07T11:47:49.393Z,82.50
2019-04-07T11:50:22.334Z,85.60
2019-04-07T11:52:52.693Z,79.47
2019-04-07T11:55:26.787Z,84.17
2019-04-07T11:58:17.728Z,77.37
2019-04-07T12:00:57.145Z,83.20
2019-04-07T12:03:32.786Z,86.80
2019-04-07T12:06:21.070Z,82.33
2019-04-07T12:09:08.521Z,84.05
2019-04-07T12:11:38.703Z,81.50
2019-04-07T12:14:15.004Z,75.37
2019-04-07T12:17:02.327Z,74.72
2019-04-07T12:19:39.833Z,80.57
2019-04-07T12:22:14.142Z,76.65
2019-04-07T12:24:47.996Z,74.60
2019-04-07T12:27:24.247Z,83.67
2019-04-07T12:30:10.022Z,80.45
2019-04-07T12:32:55.222Z,90.05
2019-04-07T12:35:32.566Z,80.57
2019-04-07T12:38:12.232Z,77.08
2019-04-07T12:41:11.413Z,78.87
2019-04-07T12:43:44.559Z,73.97
2019-04-07T12:46:12.589Z,74.25
2019-04-07T12:48:45.221Z,68.85
2019-04-07T12:51:19.893Z,70.80
2019-04-07T12:53:50.099Z,75.70
2019-04-07T12:57:09.339Z,76.55
2019-04-07T12:59:48.880Z,72.80
2019-04-07T13:02:24.030Z,71.95
2019-04-07T13:04:57.272Z,71.07
2019-04-07T13:07:43.806Z,75.72
2019-04-07T13:10:20.618Z,71.72
2019-04-07T13:12:53.629Z,77.15
2019-04-07T13:15:26.016Z,84.55
2019-04-07T13:18:14.298Z,76.77
2019-04-07T13:20:50.400Z,79.27
2019-04-07T13:23:22.225Z,80.00
2019-04-07T13:25:56.653Z,84.83
2019-04-07T13:28:27.210Z,87.95
2019-04-07T13:30:59.854Z,83.62
2019-04-07T13:33:46.796Z,92.12
2019-04-07T13:36:23.552Z,343.73
2019-04-07T13:39:28.209Z,100.30
2019-04-07T13:42:04.015Z,88.72
2019-04-07T13:44:40.894Z,81.67
2019-04-07T13:47:18.605Z,83.00
2019-04-07T13:49:51.489Z,112.35
2019-04-07T13:52:27.915Z,140.18
2019-04-07T13:54:58.976Z,99.75
2019-04-07T13:57:29.479Z,88.78
2019-04-07T14:00:06.366Z,88.00
2019-04-07T14:02:36.599Z,83.80
2019-04-07T14:05:11.282Z,94.10
2019-04-07T14:07:51.802Z,103.97
2019-04-07T14:10:25.611Z,138.85
2019-04-07T14:12:55.874Z,109.00
2019-04-07T14:15:41.113Z,161.57
2019-04-07T14:18:23.051Z,250.25
2019-04-07T14:20:56.217Z,199.00
2019-04-07T14:23:26.352Z,207.80
2019-04-07T14:26:12.496Z,337.20
2019-04-07T14:28:43.972Z,432.23
2019-04-07T14:31:17.521Z,306.57
2019-04-07T14:34:00.011Z,372.90
2019-04-07T14:36:46.710Z,246.40
2019-04-07T14:39:26.016Z,208.55
2019-04-07T14:42:13.130Z,126.02
2019-04-07T14:44:43.343Z,96.28
2019-04-07T14:47:16.515Z,82.63
2019-04-07T14:50:01.962Z,94.30
2019-04-07T14:52:50.141Z,79.80
2019-04-07T14:55:36.786Z,83.03
2019-04-07T14:58:23.203Z,74.17
2019-04-07T15:01:07.965Z,68.87
2019-04-07T15:03:36.341Z,70.60
2019-04-07T15:06:05.454Z,77.32
2019-04-07T15:08:35.644Z,72.95
2019-04-07T15:11:06.136Z,69.55
2019-04-07T15:13:35.288Z,75.28
2019-04-07T15:16:04.048Z,71.65
2019-04-07T15:18:32.532Z,76.60
2019-04-07T15:21:00.974Z,73.62
2019-04-07T15:23:31.842Z,71.00
2019-04-07T15:26:00.192Z,75.37
2019-04-07T15:28:30.678Z,71.07
2019-04-07T15:30:59.018Z,74.00
2019-04-07T15:33:31.467Z,67.85
2019-04-07T15:35:57.805Z,74.95
2019-04-07T15:38:27.314Z,73.92
2019-04-07T15:40:58.616Z,72.10
2019-04-07T15:43:27.819Z,78.60
2019-04-07T15:45:56.849Z,75.95
2019-04-07T15:48:26.210Z,71.07
2019-04-07T15:50:56.200Z,73.80
2019-04-07T15:53:25.582Z,67.25
2019-04-07T15:56:02.217Z,71.95
2019-04-07T15:58:26.804Z,73.87
2019-04-07T16:00:54.864Z,73.85
2019-04-07T16:03:23.446Z,75.92
2019-04-07T16:05:52.367Z,70.45
2019-04-07T16:08:20.899Z,76.25
2019-04-07T16:10:52.062Z,76.47
2019-04-07T16:13:19.635Z,75.57
2019-04-07T16:15:50.982Z,88.67
2019-04-07T16:18:18.967Z,74.58
2019-04-07T16:20:48.386Z,79.07
2019-04-07T16:23:18.472Z,79.72
2019-04-07T16:25:47.528Z,79.27
2019-04-07T16:28:16.288Z,85.22
2019-04-07T16:30:47.843Z,84.85
2019-04-07T16:33:15.261Z,84.07
2019-04-07T16:35:46.958Z,84.28
2019-04-07T16:38:14.202Z,87.47
2019-04-07T16:40:43.444Z,79.97
2019-04-07T16:43:16.107Z,82.25
2019-04-07T16:45:44.151Z,85.32
2019-04-07T16:48:12.858Z,84.15
2019-04-07T16:50:41.818Z,80.45
2019-04-07T16:53:10.736Z,87.55
2019-04-07T16:55:41.620Z,87.90
2019-04-07T16:58:11.542Z,89.37
2019-04-07T17:00:40.345Z,86.25
2019-04-07T17:03:09.857Z,81.53
2019-04-07T17:05:39.563Z,97.55
2019-04-07T17:08:08.662Z,86.72
2019-04-07T17:10:37.378Z,93.27
2019-04-07T17:13:17.769Z,86.65
2019-04-07T17:15:39.441Z,82.30
2019-04-07T17:18:09.675Z,84.85
2019-04-07T17:20:38.526Z,75.40
2019-04-07T17:23:07.221Z,68.00
2019-04-07T17:25:36.015Z,66.02
2019-04-07T17:28:06.047Z,59.90
2019-04-07T17:30:36.027Z,61.98
2019-04-07T17:33:06.217Z,58.02
2019-04-07T17:35:35.834Z,58.10
2019-04-07T17:38:06.921Z,60.20
2019-04-07T17:40:37.625Z,61.18
2019-04-07T17:43:12.541Z,66.35
2019-04-07T17:45:52.055Z,62.05
2019-04-07T17:48:41.047Z,66.17
2019-04-07T17:51:24.977Z,64.97
2019-04-07T17:54:04.691Z,67.65
2019-04-07T17:56:41.648Z,68.62
2019-04-07T17:59:15.501Z,69.05
2019-04-07T18:01:56.737Z,74.80
2019-04-07T18:04:46.018Z,73.45
2019-04-07T18:07:14.828Z,75.47
2019-04-07T18:09:44.967Z,78.10
2019-04-07T18:12:21.800Z,78.17
2019-04-07T18:15:00.694Z,81.67
2019-04-07T18:17:48.529Z,87.80
2019-04-07T18:20:33.788Z,82.37
2019-04-07T18:23:12.760Z,86.82
2019-04-07T18:25:45.895Z,86.00
2019-04-07T18:28:26.081Z,84.32
2019-04-07T18:30:57.329Z,81.35
2019-04-07T18:33:43.608Z,83.05
2019-04-07T18:36:13.691Z,84.22
2019-04-07T18:38:47.000Z,83.27
2019-04-07T18:41:21.887Z,87.05
2019-04-07T18:44:02.387Z,87.65
2019-04-07T18:46:38.297Z,90.32
2019-04-07T18:49:08.452Z,89.90
2019-04-07T18:51:46.505Z,100.35
2019-04-07T18:54:13.083Z,91.78
2019-04-07T18:56:44.086Z,98.23
2019-04-07T19:02:13.827Z,94.60
2019-04-07T19:04:41.364Z,97.60
2019-04-07T19:07:16.703Z,95.60
2019-04-07T19:10:04.971Z,100.90
2019-04-07T19:12:43.169Z,99.87
2019-04-07T19:15:13.614Z,102.65
2019-04-07T19:17:43.756Z,98.42
2019-04-07T19:23:58.528Z,107.97
2019-04-07T19:26:31.702Z,110.28
2019-04-07T19:29:08.573Z,111.52
2019-04-07T19:31:36.375Z,110.42
2019-04-07T19:34:23.638Z,111.30
2019-04-07T19:36:59.779Z,119.20
2019-04-07T19:39:32.932Z,116.55
2019-04-07T19:42:07.116Z,113.03
2019-04-07T19:44:41.291Z,111.03
2019-04-07T19:47:09.569Z,135.07
2019-04-07T19:49:39.653Z,138.00
2019-04-07T19:52:21.765Z,135.80
2019-04-07T19:54:52.842Z,119.57
2019-04-07T19:57:50.812Z,125.85
2019-04-07T20:00:26.008Z,113.35
2019-04-07T20:02:59.484Z,117.70
2019-04-07T20:05:44.434Z,117.20
2019-04-07T20:08:20.216Z,111.92
2019-04-07T20:10:53.612Z,120.62
2019-04-07T20:13:39.553Z,115.55
2019-04-07T20:16:24.325Z,124.00
2019-04-07T20:19:06.584Z,128.82
2019-04-07T20:21:55.204Z,122.50
2019-04-07T20:24:46.426Z,126.60
2019-04-07T20:27:32.860Z,127.40
2019-04-07T20:30:03.085Z,128.62
2019-04-07T20:32:39.099Z,124.82
2019-04-07T20:35:15.984Z,123.25
2019-04-07T20:38:03.447Z,122.50
2019-04-07T20:40:39.717Z,119.10
2019-04-07T20:43:10.104Z,127.82
2019-04-07T20:45:55.877Z,130.43
2019-04-07T20:48:36.147Z,124.10
2019-04-07T20:51:06.984Z,128.05
2019-04-07T20:53:42.983Z,137.45
2019-04-07T20:56:16.557Z,129.47
2019-04-07T20:58:53.805Z,136.85
2019-04-07T21:01:35.387Z,131.52
2019-04-07T21:04:21.669Z,132.05
2019-04-07T21:06:52.078Z,135.85
2019-04-07T21:09:22.232Z,133.18
2019-04-07T21:11:54.803Z,136.73
2019-04-07T21:14:28.113Z,136.92
2019-04-07T21:17:15.336Z,134.27
2019-04-07T21:20:02.000Z,131.32
2019-04-07T21:22:38.963Z,126.87
2019-04-07T21:25:09.384Z,129.97
2019-04-07T21:27:44.008Z,133.80
2019-04-07T21:30:20.712Z,130.10
2019-04-07T21:33:02.817Z,127.42
2019-04-07T21:35:36.640Z,134.70
2019-04-07T21:38:24.436Z,134.18
2019-04-07T21:40:57.798Z,135.12
2019-04-07T21:43:36.846Z,138.97
2019-04-07T21:46:23.997Z,142.00
2019-04-07T21:48:55.058Z,140.47
2019-04-07T21:51:31.129Z,141.80
2019-04-07T21:54:04.098Z,149.05
2019-04-07T21:56:43.183Z,142.57
2019-04-07T21:59:20.031Z,155.63
2019-04-07T22:02:11.618Z,139.45
2019-04-07T22:04:56.829Z,146.05
2019-04-07T22:07:35.532Z,143.87
2019-04-07T22:10:07.934Z,140.60
2019-04-07T22:12:36.455Z,144.37
2019-04-07T22:15:11.688Z,145.87
2019-04-07T22:17:38.333Z,143.30
2019-04-07T22:20:08.531Z,154.20
2019-04-07T22:22:37.075Z,153.90
2019-04-07T22:25:09.810Z,146.22
2019-04-07T22:27:38.942Z,141.40
2019-04-07T22:30:11.267Z,142.90
2019-04-07T22:32:45.641Z,149.53
2019-04-07T22:35:14.770Z,142.60
2019-04-07T22:37:44.084Z,137.40
2019-04-07T22:40:21.283Z,147.90
2019-04-07T22:42:50.129Z,143.70
2019-04-07T22:45:19.126Z,152.93
2019-04-07T22:47:51.481Z,145.77
2019-04-07T22:50:17.988Z,146.55
2019-04-07T22:52:49.263Z,149.57
2019-04-07T22:55:16.813Z,150.35
2019-04-07T22:57:45.363Z,146.15
2019-04-07T23:00:21.869Z,148.75
2019-04-07T23:02:50.407Z,147.57
2019-04-07T23:05:19.108Z,149.85
2019-04-07T23:07:48.096Z,138.60
2019-04-07T23:10:17.705Z,148.62
2019-04-07T23:12:46.328Z,142.82
2019-04-07T23:15:15.013Z,137.72
2019-04-07T23:17:43.486Z,145.50
2019-04-07T23:20:13.380Z,137.43
2019-04-07T23:22:42.412Z,137.90
2019-04-07T23:25:11.824Z,140.18
2019-04-07T23:27:40.709Z,143.17
2019-04-07T23:30:16.148Z,150.85
2019-04-07T23:32:44.671Z,134.97
2019-04-07T23:35:13.254Z,134.22
2019-04-07T23:37:41.711Z,136.60
2019-04-07T23:40:10.657Z,132.65
2019-04-07T23:42:39.144Z,136.92
2019-04-07T23:45:08.210Z,137.85
2019-04-07T23:47:36.845Z,134.25
2019-04-07T23:50:07.601Z,131.78
2019-04-07T23:52:36.087Z,131.78
2019-04-07T23:55:04.600Z,130.90
2019-04-07T23:57:33.048Z,124.05
